sensor_id;sensor_type;location;lat;lon;timestamp;P1;durP1;ratioP1;P2;durP2;ratioP2
12842;SDS011;35724;49.324;-123.118;2024-01-07T00:04:50;1.83;;;1.00;;
12842;SDS011;35724;49.324;-123.118;2024-01-07T00:15:06;1.98;;;1.00;;
12842;SDS011;35724;49.324;-123.118;2024-01-07T00:25:15;2.05;;;1.02;;
12842;SDS011;35724;49.324;-123.118;2024-01-07T00:35:23;2.00;;;0.95;;
12842;SDS011;35724;49.324;-123.118;2024-01-07T00:45:33;2.17;;;1.00;;
12842;SDS011;35724;49.324;-123.118;2024-01-07T00:55:40;1.65;;;0.95;;
12842;SDS011;35724;49.324;-123.118;2024-01-07T01:05:49;1.70;;;0.90;;
12842;SDS011;35724;49.324;-123.118;2024-01-07T01:15:57;1.45;;;0.80;;
12842;SDS011;35724;49.324;-123.118;2024-01-07T01:26:06;3.05;;;1.00;;
12842;SDS011;35724;49.324;-123.118;2024-01-07T01:36:13;0.88;;;0.82;;
12842;SDS011;35724;49.324;-123.118;2024-01-07T01:46:26;1.77;;;0.88;;
12842;SDS011;35724;49.324;-123.118;2024-01-07T01:56:35;0.90;;;0.90;;
12842;SDS011;35724;49.324;-123.118;2024-01-07T02:06:46;0.90;;;0.75;;
12842;SDS011;35724;49.324;-123.118;2024-01-07T02:16:53;2.22;;;1.08;;
12842;SDS011;35724;49.324;-123.118;2024-01-07T02:27:02;2.15;;;0.95;;
12842;SDS011;35724;49.324;-123.118;2024-01-07T02:37:11;4.00;;;1.17;;
12842;SDS011;35724;49.324;-123.118;2024-01-07T02:47:30;2.88;;;1.00;;
12842;SDS011;35724;49.324;-123.118;2024-01-07T02:57:37;1.27;;;1.00;;
12842;SDS011;35724;49.324;-123.118;2024-01-07T03:07:47;1.05;;;0.85;;
12842;SDS011;35724;49.324;-123.118;2024-01-07T03:17:57;4.03;;;1.10;;
12842;SDS011;35724;49.324;-123.118;2024-01-07T03:28:06;2.00;;;1.00;;
12842;SDS011;35724;49.324;-123.118;2024-01-07T03:38:13;1.17;;;0.90;;
12842;SDS011;35724;49.324;-123.118;2024-01-07T03:48:23;3.90;;;1.10;;
12842;SDS011;35724;49.324;-123.118;2024-01-07T03:58:31;3.97;;;1.48;;
12842;SDS011;35724;49.324;-123.118;2024-01-07T04:08:40;3.38;;;1.23;;
12842;SDS011;35724;49.324;-123.118;2024-01-07T04:18:49;6.50;;;1.20;;
12842;SDS011;35724;49.324;-123.118;2024-01-07T04:29:01;2.42;;;1.10;;
12842;SDS011;35724;49.324;-123.118;2024-01-07T04:39:08;2.63;;;1.20;;
12842;SDS011;35724;49.324;-123.118;2024-01-07T04:49:21;3.85;;;1.15;;
12842;SDS011;35724;49.324;-123.118;2024-01-07T04:59:32;2.38;;;1.00;;
12842;SDS011;35724;49.324;-123.118;2024-01-07T05:09:45;1.65;;;1.00;;
12842;SDS011;35724;49.324;-123.118;2024-01-07T05:19:53;2.03;;;1.00;;
12842;SDS011;35724;49.324;-123.118;2024-01-07T05:30:06;2.53;;;1.50;;
12842;SDS011;35724;49.324;-123.118;2024-01-07T05:40:14;3.63;;;1.38;;
12842;SDS011;35724;49.324;-123.118;2024-01-07T05:50:26;2.55;;;1.25;;
12842;SDS011;35724;49.324;-123.118;2024-01-07T06:00:33;4.05;;;1.17;;
12842;SDS011;35724;49.324;-123.118;2024-01-07T06:10:43;1.40;;;0.90;;
12842;SDS011;35724;49.324;-123.118;2024-01-07T06:20:50;2.55;;;1.10;;
12842;SDS011;35724;49.324;-123.118;2024-01-07T06:31:01;1.45;;;0.95;;
12842;SDS011;35724;49.324;-123.118;2024-01-07T06:41:09;1.42;;;0.95;;
12842;SDS011;35724;49.324;-123.118;2024-01-07T06:51:19;0.85;;;0.80;;
12842;SDS011;35724;49.324;-123.118;2024-01-07T07:01:26;0.88;;;0.80;;
12842;SDS011;35724;49.324;-123.118;2024-01-07T07:11:36;0.70;;;0.70;;
12842;SDS011;35724;49.324;-123.118;2024-01-07T07:21:43;2.65;;;0.70;;
12842;SDS011;35724;49.324;-123.118;2024-01-07T07:31:52;0.77;;;0.70;;
12842;SDS011;35724;49.324;-123.118;2024-01-07T07:42:00;1.02;;;0.80;;
12842;SDS011;35724;49.324;-123.118;2024-01-07T07:52:09;1.45;;;0.80;;
12842;SDS011;35724;49.324;-123.118;2024-01-07T08:02:18;1.42;;;0.60;;
12842;SDS011;35724;49.324;-123.118;2024-01-07T08:12:28;0.60;;;0.50;;
12842;SDS011;35724;49.324;-123.118;2024-01-07T08:22:35;0.60;;;0.60;;
12842;SDS011;35724;49.324;-123.118;2024-01-07T08:32:44;0.63;;;0.63;;
12842;SDS011;35724;49.324;-123.118;2024-01-07T08:42:52;0.60;;;0.60;;
12842;SDS011;35724;49.324;-123.118;2024-01-07T08:53:01;0.75;;;0.60;;
12842;SDS011;35724;49.324;-123.118;2024-01-07T09:03:08;0.47;;;0.47;;
12842;SDS011;35724;49.324;-123.118;2024-01-07T09:13:18;0.75;;;0.60;;
12842;SDS011;35724;49.324;-123.118;2024-01-07T09:23:25;0.40;;;0.40;;
12842;SDS011;35724;49.324;-123.118;2024-01-07T09:33:34;0.52;;;0.52;;
12842;SDS011;35724;49.324;-123.118;2024-01-07T09:43:41;0.47;;;0.47;;
12842;SDS011;35724;49.324;-123.118;2024-01-07T09:53:51;0.50;;;0.50;;
12842;SDS011;35724;49.324;-123.118;2024-01-07T10:04:04;0.47;;;0.47;;
12842;SDS011;35724;49.324;-123.118;2024-01-07T10:14:14;0.60;;;0.50;;
12842;SDS011;35724;49.324;-123.118;2024-01-07T10:24:21;0.50;;;0.47;;
12842;SDS011;35724;49.324;-123.118;2024-01-07T10:34:31;0.60;;;0.60;;
12842;SDS011;35724;49.324;-123.118;2024-01-07T10:44:39;0.50;;;0.50;;
12842;SDS011;35724;49.324;-123.118;2024-01-07T10:54:48;0.40;;;0.40;;
12842;SDS011;35724;49.324;-123.118;2024-01-07T11:04:56;0.50;;;0.50;;
12842;SDS011;35724;49.324;-123.118;2024-01-07T11:15:13;0.60;;;0.50;;
12842;SDS011;35724;49.324;-123.118;2024-01-07T11:25:59;0.40;;;0.40;;
12842;SDS011;35724;49.324;-123.118;2024-01-07T11:36:08;0.40;;;0.40;;
12842;SDS011;35724;49.324;-123.118;2024-01-07T11:46:18;0.40;;;0.40;;
12842;SDS011;35724;49.324;-123.118;2024-01-07T11:56:27;0.32;;;0.32;;
12842;SDS011;35724;49.324;-123.118;2024-01-07T12:06:34;0.68;;;0.50;;
12842;SDS011;35724;49.324;-123.118;2024-01-07T12:16:44;0.35;;;0.35;;
12842;SDS011;35724;49.324;-123.118;2024-01-07T12:26:51;0.40;;;0.40;;
12842;SDS011;35724;49.324;-123.118;2024-01-07T12:37:00;0.40;;;0.40;;
12842;SDS011;35724;49.324;-123.118;2024-01-07T12:47:08;0.40;;;0.40;;
12842;SDS011;35724;49.324;-123.118;2024-01-07T12:57:17;0.35;;;0.35;;
12842;SDS011;35724;49.324;-123.118;2024-01-07T13:07:26;0.40;;;0.40;;
12842;SDS011;35724;49.324;-123.118;2024-01-07T13:17:36;0.50;;;0.50;;
12842;SDS011;35724;49.324;-123.118;2024-01-07T13:27:43;0.40;;;0.40;;
12842;SDS011;35724;49.324;-123.118;2024-01-07T13:37:52;0.32;;;0.32;;
12842;SDS011;35724;49.324;-123.118;2024-01-07T13:48:00;0.40;;;0.40;;
12842;SDS011;35724;49.324;-123.118;2024-01-07T13:58:09;0.30;;;0.30;;
12842;SDS011;35724;49.324;-123.118;2024-01-07T14:08:16;0.30;;;0.30;;
12842;SDS011;35724;49.324;-123.118;2024-01-07T14:18:27;0.30;;;0.30;;
12842;SDS011;35724;49.324;-123.118;2024-01-07T14:28:34;0.50;;;0.50;;
12842;SDS011;35724;49.324;-123.118;2024-01-07T14:38:43;0.75;;;0.40;;
12842;SDS011;35724;49.324;-123.118;2024-01-07T14:48:51;0.52;;;0.52;;
12842;SDS011;35724;49.324;-123.118;2024-01-07T14:59:00;0.50;;;0.50;;
12842;SDS011;35724;49.324;-123.118;2024-01-07T15:09:08;0.50;;;0.50;;
12842;SDS011;35724;49.324;-123.118;2024-01-07T15:19:20;0.40;;;0.40;;
12842;SDS011;35724;49.324;-123.118;2024-01-07T15:29:28;0.43;;;0.43;;
12842;SDS011;35724;49.324;-123.118;2024-01-07T15:39:37;0.30;;;0.30;;
12842;SDS011;35724;49.324;-123.118;2024-01-07T15:49:45;0.47;;;0.47;;
12842;SDS011;35724;49.324;-123.118;2024-01-07T15:59:54;0.60;;;0.50;;
12842;SDS011;35724;49.324;-123.118;2024-01-07T16:10:06;0.50;;;0.50;;
12842;SDS011;35724;49.324;-123.118;2024-01-07T16:20:16;0.70;;;0.70;;
12842;SDS011;35724;49.324;-123.118;2024-01-07T16:30:23;1.95;;;0.70;;
12842;SDS011;35724;49.324;-123.118;2024-01-07T16:40:32;1.77;;;0.70;;
12842;SDS011;35724;49.324;-123.118;2024-01-07T16:50:40;1.65;;;0.55;;
12842;SDS011;35724;49.324;-123.118;2024-01-07T17:00:49;1.92;;;0.82;;
12842;SDS011;35724;49.324;-123.118;2024-01-07T17:10:56;1.17;;;0.60;;
12842;SDS011;35724;49.324;-123.118;2024-01-07T17:21:06;2.58;;;0.63;;
12842;SDS011;35724;49.324;-123.118;2024-01-07T17:31:16;2.83;;;0.82;;
12842;SDS011;35724;49.324;-123.118;2024-01-07T17:41:25;2.30;;;0.80;;
12842;SDS011;35724;49.324;-123.118;2024-01-07T17:51:33;1.77;;;1.00;;
12842;SDS011;35724;49.324;-123.118;2024-01-07T18:01:46;1.58;;;0.82;;
12842;SDS011;35724;49.324;-123.118;2024-01-07T18:11:57;1.10;;;0.90;;
12842;SDS011;35724;49.324;-123.118;2024-01-07T18:22:07;1.02;;;0.63;;
12842;SDS011;35724;49.324;-123.118;2024-01-07T18:32:15;0.70;;;0.70;;
12842;SDS011;35724;49.324;-123.118;2024-01-07T18:42:24;0.85;;;0.80;;
12842;SDS011;35724;49.324;-123.118;2024-01-07T18:52:31;1.40;;;0.80;;
12842;SDS011;35724;49.324;-123.118;2024-01-07T19:02:40;0.90;;;0.70;;
12842;SDS011;35724;49.324;-123.118;2024-01-07T19:12:47;0.70;;;0.70;;
12842;SDS011;35724;49.324;-123.118;2024-01-07T19:22:57;0.90;;;0.88;;
12842;SDS011;35724;49.324;-123.118;2024-01-07T19:33:05;0.73;;;0.73;;
12842;SDS011;35724;49.324;-123.118;2024-01-07T19:43:16;0.70;;;0.70;;
12842;SDS011;35724;49.324;-123.118;2024-01-07T19:53:24;0.80;;;0.80;;
12842;SDS011;35724;49.324;-123.118;2024-01-07T20:03:34;0.70;;;0.70;;
12842;SDS011;35724;49.324;-123.118;2024-01-07T20:13:45;0.73;;;0.73;;
12842;SDS011;35724;49.324;-123.118;2024-01-07T20:23:57;0.65;;;0.65;;
12842;SDS011;35724;49.324;-123.118;2024-01-07T20:34:05;0.70;;;0.70;;
12842;SDS011;35724;49.324;-123.118;2024-01-07T20:44:16;0.70;;;0.70;;
12842;SDS011;35724;49.324;-123.118;2024-01-07T20:54:24;0.70;;;0.70;;
12842;SDS011;35724;49.324;-123.118;2024-01-07T21:04:35;0.63;;;0.63;;
12842;SDS011;35724;49.324;-123.118;2024-01-07T21:14:42;0.70;;;0.68;;
12842;SDS011;35724;49.324;-123.118;2024-01-07T21:25:03;0.70;;;0.70;;
12842;SDS011;35724;49.324;-123.118;2024-01-07T21:35:20;3.28;;;1.40;;
12842;SDS011;35724;49.324;-123.118;2024-01-07T21:45:29;2.63;;;1.08;;
12842;SDS011;35724;49.324;-123.118;2024-01-07T21:55:36;1.23;;;1.00;;
12842;SDS011;35724;49.324;-123.118;2024-01-07T22:05:46;2.80;;;1.00;;
12842;SDS011;35724;49.324;-123.118;2024-01-07T22:15:56;1.58;;;0.90;;
12842;SDS011;35724;49.324;-123.118;2024-01-07T22:26:06;0.93;;;0.90;;
12842;SDS011;35724;49.324;-123.118;2024-01-07T22:36:14;2.00;;;1.10;;
12842;SDS011;35724;49.324;-123.118;2024-01-07T22:46:23;1.15;;;1.00;;
12842;SDS011;35724;49.324;-123.118;2024-01-07T22:56:31;1.05;;;0.95;;
12842;SDS011;35724;49.324;-123.118;2024-01-07T23:06:39;1.45;;;1.00;;
12842;SDS011;35724;49.324;-123.118;2024-01-07T23:16:47;0.80;;;0.80;;
12842;SDS011;35724;49.324;-123.118;2024-01-07T23:26:57;0.88;;;0.82;;
12842;SDS011;35724;49.324;-123.118;2024-01-07T23:37:04;1.10;;;0.98;;
12842;SDS011;35724;49.324;-123.118;2024-01-07T23:47:13;1.10;;;0.95;;
12842;SDS011;35724;49.324;-123.118;2024-01-07T23:57:20;1.40;;;1.08;;
